createdAt,value
2023-08-02T00:01:29.587Z,9.75
2023-08-02T00:04:09.823Z,9.60
2023-08-02T00:06:37.797Z,10.75
2023-08-02T00:09:04.563Z,10.25
2023-08-02T00:11:31.317Z,11.63
2023-08-02T00:13:57.999Z,11.40
2023-08-02T00:16:24.844Z,12.25
2023-08-02T00:18:51.632Z,11.68
2023-08-02T00:21:18.307Z,11.90
2023-08-02T00:23:45.058Z,12.50
2023-08-02T00:26:12.018Z,11.85
2023-08-02T00:28:38.655Z,11.90
2023-08-02T00:31:05.370Z,13.75
2023-08-02T00:33:32.076Z,11.35
2023-08-02T00:35:59.195Z,11.10
2023-08-02T00:38:25.970Z,10.48
2023-08-02T00:40:52.634Z,9.80
2023-08-02T00:43:19.996Z,11.50
2023-08-02T00:45:46.946Z,10.55
2023-08-02T00:48:13.866Z,11.02
2023-08-02T00:50:40.591Z,10.70
2023-08-02T00:53:07.261Z,9.93
2023-08-02T00:55:34.955Z,10.43
2023-08-02T00:58:01.692Z,10.52
2023-08-02T01:00:29.212Z,10.50
2023-08-02T01:02:56.245Z,10.55
2023-08-02T01:05:27.157Z,9.40
2023-08-02T01:07:59.486Z,10.35
2023-08-02T01:10:55.709Z,10.52
2023-08-02T01:13:23.090Z,10.70
2023-08-02T01:15:49.902Z,11.00
2023-08-02T01:18:16.916Z,10.38
2023-08-02T01:20:43.697Z,9.77
2023-08-02T01:23:10.385Z,10.20
2023-08-02T01:25:37.365Z,10.85
2023-08-02T01:28:06.822Z,10.13
2023-08-02T01:30:39.588Z,11.27
2023-08-02T01:33:07.054Z,11.15
2023-08-02T01:35:34.357Z,10.18
2023-08-02T01:38:01.054Z,10.00
2023-08-02T01:40:27.794Z,10.05
2023-08-02T01:42:54.438Z,12.20
2023-08-02T01:45:21.242Z,11.88
2023-08-02T01:47:49.028Z,13.15
2023-08-02T01:50:15.834Z,11.25
2023-08-02T01:52:43.397Z,11.15
2023-08-02T01:55:10.382Z,11.30
2023-08-02T01:57:37.038Z,11.52
2023-08-02T02:00:04.269Z,11.05
2023-08-02T02:02:31.073Z,11.52
2023-08-02T02:04:57.813Z,11.35
2023-08-02T02:07:24.983Z,10.60
2023-08-02T02:09:51.816Z,11.52
2023-08-02T02:12:18.597Z,12.93
2023-08-02T02:14:45.402Z,13.18
2023-08-02T02:17:12.088Z,10.95
2023-08-02T02:19:39.099Z,11.88
2023-08-02T02:22:05.919Z,11.60
2023-08-02T02:24:32.681Z,10.98
2023-08-02T02:26:59.488Z,12.52
2023-08-02T02:29:26.237Z,12.13
2023-08-02T02:31:52.972Z,11.40
2023-08-02T02:34:19.675Z,12.38
2023-08-02T02:36:47.344Z,12.13
2023-08-02T02:39:13.996Z,11.45
2023-08-02T02:41:40.690Z,12.45
2023-08-02T02:44:07.439Z,11.85
2023-08-02T02:46:34.210Z,12.60
2023-08-02T02:49:00.965Z,11.48
2023-08-02T02:51:27.804Z,12.38
2023-08-02T02:53:54.431Z,12.90
2023-08-02T02:56:21.274Z,11.02
2023-08-02T02:58:48.121Z,12.38
2023-08-02T03:01:15.040Z,11.63
2023-08-02T03:03:41.790Z,10.10
2023-08-02T03:06:08.529Z,9.45
2023-08-02T03:08:35.392Z,9.45
2023-08-02T03:11:02.153Z,9.32
2023-08-02T03:13:28.831Z,8.18
2023-08-02T03:15:55.482Z,7.03
2023-08-02T03:18:22.158Z,7.55
2023-08-02T03:20:48.869Z,8.05
2023-08-02T03:23:15.616Z,7.63
2023-08-02T03:25:42.307Z,7.38
2023-08-02T03:28:08.972Z,7.80
2023-08-02T03:30:35.744Z,7.82
2023-08-02T03:33:02.503Z,8.02
2023-08-02T03:35:29.178Z,6.82
2023-08-02T03:37:55.781Z,7.90
2023-08-02T03:40:22.428Z,7.05
2023-08-02T03:42:49.192Z,6.93
2023-08-02T03:45:15.868Z,8.05
2023-08-02T03:47:42.607Z,7.30
2023-08-02T03:50:09.646Z,7.70
2023-08-02T03:52:36.361Z,7.60
2023-08-02T03:55:03.234Z,7.03
2023-08-02T03:57:30.013Z,7.10
2023-08-02T03:59:56.787Z,7.70
2023-08-02T04:02:23.542Z,7.32
2023-08-02T04:04:50.261Z,7.40
2023-08-02T04:07:17.004Z,6.38
2023-08-02T04:09:43.817Z,6.50
2023-08-02T04:12:10.482Z,7.28
2023-08-02T04:14:37.108Z,6.97
2023-08-02T04:17:04.077Z,7.93
2023-08-02T04:19:30.818Z,7.10
2023-08-02T04:21:57.488Z,7.28
2023-08-02T04:24:24.703Z,7.13
2023-08-02T04:26:51.401Z,6.82
2023-08-02T04:29:18.180Z,6.72
2023-08-02T04:31:44.963Z,6.20
2023-08-02T04:34:11.763Z,6.65
2023-08-02T04:36:38.724Z,6.28
2023-08-02T04:39:08.004Z,6.85
2023-08-02T04:41:35.501Z,7.50
2023-08-02T04:44:02.209Z,7.88
2023-08-02T04:46:29.112Z,8.02
2023-08-02T04:48:55.990Z,7.28
2023-08-02T04:51:22.838Z,8.40
2023-08-02T04:53:49.611Z,7.22
2023-08-02T04:56:16.901Z,8.65
2023-08-02T04:58:43.841Z,7.85
2023-08-02T05:01:10.777Z,8.20
2023-08-02T05:03:37.538Z,7.93
2023-08-02T05:06:07.193Z,8.68
2023-08-02T05:08:37.060Z,8.18
2023-08-02T05:11:07.669Z,7.85
2023-08-02T05:13:34.778Z,7.10
2023-08-02T05:16:01.731Z,7.95
2023-08-02T05:18:28.529Z,7.28
2023-08-02T05:20:55.312Z,8.65
2023-08-02T05:23:22.186Z,6.78
2023-08-02T05:25:48.952Z,6.90
2023-08-02T05:28:15.744Z,6.32
2023-08-02T05:30:42.426Z,7.13
2023-08-02T05:33:09.230Z,7.20
2023-08-02T05:35:35.982Z,6.95
2023-08-02T05:38:03.296Z,7.65
2023-08-02T05:40:30.060Z,7.07
2023-08-02T05:42:58.080Z,7.68
2023-08-02T05:45:25.401Z,7.18
2023-08-02T05:47:52.344Z,7.55
2023-08-02T05:50:19.253Z,9.07
2023-08-02T05:52:45.985Z,7.45
2023-08-02T05:55:13.544Z,6.80
2023-08-02T05:57:40.401Z,7.18
2023-08-02T06:00:08.800Z,8.00
2023-08-02T06:02:36.158Z,7.35
2023-08-02T06:05:03.008Z,7.85
2023-08-02T06:07:29.651Z,8.18
2023-08-02T06:09:56.316Z,7.75
2023-08-02T06:12:23.296Z,7.70
2023-08-02T06:14:50.035Z,8.25
2023-08-02T06:17:16.702Z,7.93
2023-08-02T06:19:43.568Z,7.13
2023-08-02T06:22:10.298Z,7.53
2023-08-02T06:24:37.230Z,7.30
2023-08-02T06:27:06.610Z,6.95
2023-08-02T06:29:33.340Z,7.75
2023-08-02T06:32:00.121Z,6.20
2023-08-02T06:34:26.800Z,7.20
2023-08-02T06:36:53.438Z,6.95
2023-08-02T06:39:20.107Z,7.43
2023-08-02T06:41:47.110Z,6.75
2023-08-02T06:44:14.874Z,7.53
2023-08-02T06:46:42.334Z,7.53
2023-08-02T06:49:09.147Z,6.55
2023-08-02T06:51:35.935Z,6.70
2023-08-02T06:54:02.648Z,7.07
2023-08-02T06:56:29.451Z,7.00
2023-08-02T06:58:56.257Z,6.70
2023-08-02T07:01:24.349Z,6.47
2023-08-02T07:03:51.519Z,6.47
2023-08-02T07:06:20.241Z,5.93
2023-08-02T07:08:47.542Z,6.20
2023-08-02T07:11:26.054Z,5.80
2023-08-02T07:13:57.325Z,6.03
2023-08-02T07:16:24.046Z,6.13
2023-08-02T07:18:50.747Z,6.22
2023-08-02T07:21:17.479Z,6.50
2023-08-02T07:23:44.257Z,6.95
2023-08-02T07:26:11.099Z,6.68
2023-08-02T07:28:37.765Z,7.20
2023-08-02T07:31:09.097Z,7.95
2023-08-02T07:33:36.046Z,8.40
2023-08-02T07:36:03.242Z,6.97
2023-08-02T07:38:30.157Z,7.18
2023-08-02T07:40:56.830Z,7.90
2023-08-02T07:43:23.527Z,8.15
2023-08-02T07:45:50.179Z,8.70
2023-08-02T07:48:16.911Z,9.00
2023-08-02T07:50:43.634Z,8.02
2023-08-02T07:53:10.343Z,7.88
2023-08-02T07:55:37.204Z,8.23
2023-08-02T07:58:03.839Z,8.07
2023-08-02T08:00:30.502Z,7.45
2023-08-02T08:02:57.196Z,8.10
2023-08-02T08:05:23.901Z,8.27
2023-08-02T08:07:50.517Z,7.65
2023-08-02T08:10:17.256Z,7.63
2023-08-02T08:12:44.151Z,7.45
2023-08-02T08:15:10.857Z,7.15
2023-08-02T08:17:37.751Z,6.55
2023-08-02T08:20:06.635Z,7.28
2023-08-02T08:22:33.577Z,7.60
2023-08-02T08:25:00.421Z,7.75
2023-08-02T08:27:27.121Z,7.03
2023-08-02T08:29:53.819Z,7.88
2023-08-02T08:32:21.541Z,7.55
2023-08-02T08:34:48.405Z,7.63
2023-08-02T08:37:15.101Z,8.20
2023-08-02T08:39:41.809Z,6.15
2023-08-02T08:42:09.320Z,6.90
2023-08-02T08:44:39.630Z,6.53
2023-08-02T08:47:09.809Z,7.60
2023-08-02T08:49:36.516Z,6.72
2023-08-02T08:52:05.559Z,6.93
2023-08-02T08:54:33.345Z,6.55
2023-08-02T08:57:00.684Z,5.93
2023-08-02T08:59:27.462Z,6.60
2023-08-02T09:01:54.412Z,7.03
2023-08-02T09:04:21.097Z,6.03
2023-08-02T09:06:47.804Z,6.25
2023-08-02T09:09:15.891Z,6.25
2023-08-02T09:11:43.810Z,5.88
2023-08-02T09:14:12.266Z,4.70
2023-08-02T09:16:58.980Z,5.60
2023-08-02T09:19:31.192Z,5.45
2023-08-02T09:22:17.350Z,4.45
2023-08-02T09:24:45.510Z,4.75
2023-08-02T09:27:15.343Z,4.45
2023-08-02T09:29:50.050Z,5.07
2023-08-02T09:32:18.340Z,5.10
2023-08-02T09:34:47.356Z,4.78
2023-08-02T09:37:15.448Z,5.32
2023-08-02T09:39:52.228Z,4.68
2023-08-02T09:42:23.323Z,3.90
2023-08-02T09:45:00.324Z,4.45
2023-08-02T09:47:28.420Z,4.85
2023-08-02T09:50:05.067Z,4.88
2023-08-02T09:52:32.016Z,5.30
2023-08-02T09:54:58.761Z,4.95
2023-08-02T09:57:29.807Z,4.57
2023-08-02T10:00:07.994Z,4.32
2023-08-02T10:02:38.754Z,4.90
2023-08-02T10:05:08.534Z,4.93
2023-08-02T10:07:42.903Z,5.10
2023-08-02T10:10:23.610Z,4.55
2023-08-02T10:12:55.833Z,4.55
2023-08-02T10:15:23.609Z,5.55
2023-08-02T10:17:50.599Z,4.82
2023-08-02T10:20:18.376Z,4.75
2023-08-02T10:22:45.567Z,4.70
2023-08-02T10:25:14.925Z,4.82
2023-08-02T10:27:42.410Z,5.07
2023-08-02T10:30:10.131Z,4.82
2023-08-02T10:32:37.056Z,4.55
2023-08-02T10:35:04.183Z,6.00
2023-08-02T10:37:53.750Z,4.78
2023-08-02T10:40:22.855Z,4.80
2023-08-02T10:43:06.840Z,4.72
2023-08-02T10:45:34.455Z,4.10
2023-08-02T10:48:23.181Z,4.70
2023-08-02T10:50:50.365Z,4.47
2023-08-02T10:53:17.142Z,4.57
2023-08-02T10:56:04.263Z,4.30
2023-08-02T10:58:53.489Z,4.85
2023-08-02T11:01:21.170Z,4.65
2023-08-02T11:03:48.257Z,5.05
2023-08-02T11:06:24.843Z,4.20
2023-08-02T11:08:51.624Z,4.63
2023-08-02T11:11:28.924Z,5.00
2023-08-02T11:13:55.684Z,5.00
2023-08-02T11:16:23.450Z,5.28
2023-08-02T11:18:51.121Z,4.68
2023-08-02T11:21:18.074Z,4.68
2023-08-02T11:26:19.156Z,5.43
2023-08-02T11:28:51.124Z,4.43
2023-08-02T11:31:18.327Z,5.68
2023-08-02T11:33:45.595Z,4.63
2023-08-02T11:36:12.576Z,4.78
2023-08-02T11:38:39.656Z,4.72
2023-08-02T11:41:23.037Z,5.03
2023-08-02T11:43:50.075Z,4.63
2023-08-02T11:46:22.662Z,4.95
2023-08-02T11:48:49.846Z,4.50
2023-08-02T11:51:18.514Z,4.72
2023-08-02T11:53:57.000Z,4.28
2023-08-02T11:56:25.304Z,4.03
2023-08-02T11:58:52.486Z,4.18
2023-08-02T12:01:20.062Z,4.68
2023-08-02T12:04:01.973Z,4.28
2023-08-02T12:06:47.537Z,5.05
2023-08-02T12:09:15.471Z,4.32
2023-08-02T12:11:43.224Z,3.97
2023-08-02T12:14:09.892Z,5.13
2023-08-02T12:16:43.978Z,4.15
2023-08-02T12:21:40.929Z,4.63
2023-08-02T12:24:14.896Z,4.80
2023-08-02T12:26:41.916Z,4.72
2023-08-02T12:29:08.853Z,4.30
2023-08-02T12:31:43.225Z,4.38
2023-08-02T12:34:10.700Z,4.55
2023-08-02T12:36:38.129Z,4.10
2023-08-02T12:39:05.522Z,4.82
2023-08-02T12:41:32.360Z,4.32
2023-08-02T12:44:02.484Z,4.40
2023-08-02T12:46:31.313Z,4.70
2023-08-02T12:48:58.194Z,4.78
2023-08-02T12:51:25.311Z,4.97
2023-08-02T12:53:52.105Z,4.15
2023-08-02T12:56:18.762Z,5.15
2023-08-02T12:58:45.455Z,4.85
2023-08-02T13:01:12.237Z,4.47
2023-08-02T13:03:39.025Z,4.53
2023-08-02T13:06:05.760Z,5.43
2023-08-02T13:08:32.489Z,5.25
2023-08-02T13:10:59.223Z,4.78
2023-08-02T13:13:25.931Z,4.82
2023-08-02T13:15:53.073Z,5.55
2023-08-02T13:18:19.864Z,5.18
2023-08-02T13:20:46.649Z,4.90
2023-08-02T13:23:13.309Z,4.60
2023-08-02T13:25:40.124Z,4.28
2023-08-02T13:28:07.985Z,4.65
2023-08-02T13:30:35.113Z,4.55
2023-08-02T13:33:02.059Z,4.13
2023-08-02T13:35:29.198Z,3.88
2023-08-02T13:37:56.006Z,4.05
2023-08-02T13:40:22.682Z,4.55
2023-08-02T13:42:49.321Z,3.40
2023-08-02T13:45:16.088Z,4.07
2023-08-02T13:47:42.863Z,4.20
2023-08-02T13:50:10.017Z,4.20
2023-08-02T13:52:36.651Z,4.00
2023-08-02T13:55:03.766Z,4.72
2023-08-02T13:57:30.493Z,4.13
2023-08-02T13:59:57.122Z,3.30
2023-08-02T14:02:23.774Z,4.40
2023-08-02T14:04:50.857Z,3.95
2023-08-02T14:07:17.784Z,4.70
2023-08-02T14:09:44.452Z,4.70
2023-08-02T14:12:11.328Z,3.90
2023-08-02T14:14:39.266Z,4.70
2023-08-02T14:17:06.408Z,4.70
2023-08-02T14:19:33.238Z,4.60
2023-08-02T14:22:00.043Z,4.97
2023-08-02T14:24:27.320Z,5.07
2023-08-02T14:26:53.989Z,4.70
2023-08-02T14:29:20.706Z,5.25
2023-08-02T14:31:47.320Z,4.68
2023-08-02T14:34:14.024Z,4.93
2023-08-02T14:36:41.028Z,3.97
2023-08-02T14:39:07.899Z,4.03
2023-08-02T14:41:34.580Z,4.93
2023-08-02T14:44:01.405Z,5.40
2023-08-02T14:46:28.161Z,5.95
2023-08-02T14:48:54.882Z,6.05
2023-08-02T14:51:21.610Z,5.50
2023-08-02T14:53:52.263Z,5.85
2023-08-02T14:56:21.369Z,5.82
2023-08-02T14:58:48.259Z,6.75
2023-08-02T15:01:14.982Z,5.85
2023-08-02T15:03:41.717Z,5.78
2023-08-02T15:06:08.510Z,6.53
2023-08-02T15:08:35.419Z,6.78
2023-08-02T15:11:02.062Z,3.75
2023-08-02T15:13:28.805Z,5.43
2023-08-02T15:15:55.492Z,4.95
2023-08-02T15:18:22.204Z,5.00
2023-08-02T15:20:49.015Z,4.88
2023-08-02T15:23:15.690Z,4.03
2023-08-02T15:25:42.366Z,4.80
2023-08-02T15:28:09.058Z,5.82
2023-08-02T15:30:35.772Z,5.75
2023-08-02T15:33:02.437Z,5.60
2023-08-02T15:35:29.373Z,5.60
2023-08-02T15:37:56.052Z,5.15
2023-08-02T15:40:23.249Z,5.25
2023-08-02T15:42:50.020Z,6.15
2023-08-02T15:45:16.863Z,4.80
2023-08-02T15:47:43.631Z,5.65
2023-08-02T15:50:10.681Z,6.78
2023-08-02T15:52:37.347Z,6.75
2023-08-02T15:55:04.275Z,7.60
2023-08-02T15:57:31.103Z,7.35
2023-08-02T15:59:57.882Z,7.88
2023-08-02T16:02:24.620Z,7.65
2023-08-02T16:04:51.501Z,7.43
2023-08-02T16:07:19.698Z,8.23
2023-08-02T16:09:46.458Z,7.57
2023-08-02T16:12:13.138Z,8.68
2023-08-02T16:14:39.904Z,10.75
2023-08-02T16:17:06.742Z,9.85
2023-08-02T16:19:33.635Z,10.77
2023-08-02T16:22:00.380Z,9.13
2023-08-02T16:24:27.052Z,10.98
2023-08-02T16:26:53.702Z,10.30
2023-08-02T16:29:20.440Z,10.02
2023-08-02T16:31:47.145Z,11.13
2023-08-02T16:34:13.843Z,12.38
2023-08-02T16:36:40.526Z,9.73
2023-08-02T16:39:07.309Z,9.75
2023-08-02T16:41:34.009Z,11.35
2023-08-02T16:44:00.652Z,10.52
2023-08-02T16:46:27.799Z,9.90
2023-08-02T16:48:54.798Z,9.73
2023-08-02T16:51:22.920Z,9.50
2023-08-02T16:53:49.604Z,8.80
2023-08-02T16:56:16.253Z,9.65
2023-08-02T16:58:42.928Z,9.88
2023-08-02T17:01:09.949Z,10.32
2023-08-02T17:03:36.682Z,11.90
2023-08-02T17:06:03.481Z,11.07
2023-08-02T17:08:30.345Z,11.55
2023-08-02T17:10:57.065Z,10.80
2023-08-02T17:13:23.833Z,10.48
2023-08-02T17:15:50.480Z,9.77
2023-08-02T17:18:17.256Z,11.20
2023-08-02T17:20:44.060Z,10.82
2023-08-02T17:23:10.860Z,10.38
2023-08-02T17:25:37.617Z,10.48
2023-08-02T17:28:04.466Z,12.10
2023-08-02T17:30:32.359Z,12.95
2023-08-02T17:32:59.094Z,12.85
2023-08-02T17:35:25.742Z,13.25
2023-08-02T17:37:54.520Z,11.75
2023-08-02T17:40:21.678Z,13.27
2023-08-02T17:42:49.150Z,13.00
2023-08-02T17:45:16.512Z,12.40
2023-08-02T17:47:43.366Z,11.88
2023-08-02T17:50:10.449Z,12.30
2023-08-02T17:52:37.148Z,11.10
2023-08-02T17:55:04.117Z,18.88
2023-08-02T17:57:30.823Z,13.50
2023-08-02T17:59:58.613Z,13.80
2023-08-02T18:02:25.500Z,13.65
2023-08-02T18:04:55.613Z,12.88
2023-08-02T18:07:22.396Z,12.88
2023-08-02T18:09:49.166Z,12.95
2023-08-02T18:12:15.855Z,12.32
2023-08-02T18:14:42.579Z,13.40
2023-08-02T18:17:09.292Z,13.32
2023-08-02T18:19:36.724Z,13.32
2023-08-02T18:22:03.483Z,16.67
2023-08-02T18:24:37.031Z,13.75
2023-08-02T18:27:06.029Z,15.23
2023-08-02T18:29:32.722Z,13.00
2023-08-02T18:31:59.580Z,13.90
2023-08-02T18:34:26.428Z,14.73
2023-08-02T18:36:53.119Z,13.82
2023-08-02T18:39:22.651Z,14.65
2023-08-02T18:41:49.436Z,13.02
2023-08-02T18:44:16.248Z,13.05
2023-08-02T18:46:42.910Z,15.95
2023-08-02T18:49:09.680Z,15.20
2023-08-02T18:51:36.435Z,14.70
2023-08-02T18:54:03.170Z,14.73
2023-08-02T18:56:29.836Z,16.15
2023-08-02T18:58:57.058Z,14.73
2023-08-02T19:01:23.877Z,14.02
2023-08-02T19:03:52.131Z,14.00
2023-08-02T19:06:19.079Z,15.25
2023-08-02T19:08:47.616Z,14.88
2023-08-02T19:11:25.021Z,15.15
2023-08-02T19:13:56.071Z,15.82
2023-08-02T19:16:23.476Z,16.50
2023-08-02T19:18:50.317Z,15.85
2023-08-02T19:21:17.081Z,15.63
2023-08-02T19:23:45.087Z,14.77
2023-08-02T19:26:18.926Z,14.48
2023-08-02T19:28:45.825Z,16.42
2023-08-02T19:31:15.046Z,17.05
2023-08-02T19:33:44.545Z,14.60
2023-08-02T19:36:22.022Z,13.88
2023-08-02T19:38:49.716Z,15.27
2023-08-02T19:41:20.586Z,13.05
2023-08-02T19:43:47.912Z,13.40
2023-08-02T19:46:15.168Z,13.25
2023-08-02T19:48:42.415Z,14.00
2023-08-02T19:51:09.240Z,15.05
2023-08-02T19:53:36.530Z,13.63
2023-08-02T19:56:05.332Z,14.18
2023-08-02T19:58:32.164Z,14.80
2023-08-02T20:00:58.855Z,15.02
2023-08-02T20:03:29.314Z,14.02
2023-08-02T20:06:01.511Z,14.38
2023-08-02T20:08:33.153Z,14.27
2023-08-02T20:11:00.860Z,14.43
2023-08-02T20:13:32.974Z,13.73
2023-08-02T20:16:00.952Z,14.35
2023-08-02T20:18:27.861Z,19.20
2023-08-02T20:20:55.934Z,14.07
2023-08-02T20:23:25.936Z,13.82
2023-08-02T20:25:54.632Z,14.65
2023-08-02T20:28:21.934Z,15.18
2023-08-02T20:30:52.267Z,15.50
2023-08-02T20:33:20.961Z,14.98
2023-08-02T20:35:47.902Z,15.63
2023-08-02T20:38:16.693Z,16.88
2023-08-02T20:40:44.358Z,16.10
2023-08-02T20:43:13.021Z,16.55
2023-08-02T20:45:44.792Z,16.10
2023-08-02T20:48:12.714Z,16.92
2023-08-02T20:50:46.896Z,16.50
2023-08-02T20:53:16.128Z,18.20
2023-08-02T20:55:43.991Z,16.50
2023-08-02T20:58:15.114Z,14.60
2023-08-02T21:00:51.258Z,16.30
2023-08-02T21:03:18.550Z,15.85
2023-08-02T21:05:45.273Z,16.00
2023-08-02T21:08:12.078Z,15.55
2023-08-02T21:10:38.924Z,15.23
2023-08-02T21:13:05.637Z,12.80
2023-08-02T21:15:32.547Z,14.10
2023-08-02T21:17:59.335Z,13.18
2023-08-02T21:20:40.734Z,12.82
2023-08-02T21:23:10.698Z,13.88
2023-08-02T21:25:42.959Z,12.73
2023-08-02T21:28:14.164Z,13.23
2023-08-02T21:30:43.169Z,13.65
2023-08-02T21:33:11.430Z,13.60
2023-08-02T21:35:38.853Z,14.35
2023-08-02T21:38:16.678Z,15.30
2023-08-02T21:40:43.367Z,13.55
2023-08-02T21:43:16.022Z,14.07
2023-08-02T21:45:42.807Z,13.60
2023-08-02T21:48:10.129Z,14.60
2023-08-02T21:50:36.891Z,13.18
2023-08-02T21:53:04.788Z,13.18
2023-08-02T21:55:34.964Z,13.18
2023-08-02T21:58:04.380Z,13.13
2023-08-02T22:00:31.184Z,11.13
2023-08-02T22:03:01.151Z,11.13
2023-08-02T22:05:28.036Z,12.38
2023-08-02T22:07:54.930Z,12.50
2023-08-02T22:10:23.072Z,11.13
2023-08-02T22:12:49.761Z,13.00
2023-08-02T22:15:17.489Z,11.90
2023-08-02T22:17:44.792Z,11.00
2023-08-02T22:20:11.955Z,12.85
2023-08-02T22:22:38.746Z,11.65
2023-08-02T22:25:05.979Z,11.55
2023-08-02T22:27:33.239Z,11.80
2023-08-02T22:30:00.083Z,13.07
2023-08-02T22:32:27.715Z,11.18
2023-08-02T22:34:54.876Z,13.30
2023-08-02T22:37:21.504Z,12.73
2023-08-02T22:39:48.236Z,13.02
2023-08-02T22:42:14.881Z,14.75
2023-08-02T22:44:41.570Z,13.25
2023-08-02T22:47:08.249Z,12.57
2023-08-02T22:50:43.422Z,13.82
2023-08-02T22:52:23.716Z,14.38
2023-08-02T22:54:54.014Z,16.15
2023-08-02T22:57:25.982Z,16.20
2023-08-02T22:59:52.944Z,18.38
2023-08-02T23:02:19.669Z,17.15
2023-08-02T23:04:50.962Z,19.50
2023-08-02T23:07:22.521Z,18.65
2023-08-02T23:09:49.580Z,16.73
2023-08-02T23:12:20.515Z,19.42
2023-08-02T23:14:51.702Z,19.92
2023-08-02T23:17:18.688Z,18.95
2023-08-02T23:19:46.269Z,20.40
2023-08-02T23:22:13.686Z,19.20
2023-08-02T23:24:43.539Z,20.27
2023-08-02T23:27:25.271Z,21.05
2023-08-02T23:29:52.379Z,20.48
2023-08-02T23:32:19.007Z,20.95
2023-08-02T23:34:46.082Z,21.15
2023-08-02T23:37:12.915Z,21.88
2023-08-02T23:39:39.531Z,21.42
2023-08-02T23:42:07.203Z,20.67
2023-08-02T23:44:36.996Z,20.25
2023-08-02T23:47:03.962Z,20.42
2023-08-02T23:49:30.649Z,20.30
2023-08-02T23:51:59.227Z,20.48
2023-08-02T23:54:27.444Z,20.63
2023-08-02T23:56:54.162Z,19.40
2023-08-02T23:59:20.923Z,19.95
